Time;durP1;ratioP1;P1;durP2;ratioP2;P2;SDS_P1;SDS_P2;PMS_P1;PMS_P2;Temp;Humidity;BMP_temperature;BMP_pressure;BME280_temperature;BME280_humidity;BME280_pressure;Samples;Min_cycle;Max_cycle;Signal;HPM_P1;HPM_P2
2022/03/27 00:00:27;;;;;;;;;32.00;27.00;;;;;13.26;42.98;102504.03;5033911;28;45480;-68
2022/03/27 00:02:53;;;;;;;;;37.00;31.00;;;;;13.25;43.23;102510.19;5031660;28;45450;-68
2022/03/27 00:05:18;;;;;;;;;41.75;28.00;;;;;13.22;43.30;102502.38;5031200;28;45436;-68
2022/03/27 00:07:43;;;;;;;;;49.75;30.25;;;;;13.19;43.53;102507.69;5031489;28;45329;-67
2022/03/27 00:10:09;;;;;;;;;41.75;31.25;;;;;13.18;43.36;102507.75;5031813;28;46135;-68
2022/03/27 00:12:35;;;;;;;;;32.50;30.75;;;;;13.16;44.02;102506.91;5034703;28;45405;-67
2022/03/27 00:15:01;;;;;;;;;41.50;30.00;;;;;13.14;44.04;102504.28;5031930;28;45330;-68
2022/03/27 00:17:29;;;;;;;;;36.50;30.00;;;;;13.12;44.00;102506.13;5030928;28;45645;-67
2022/03/27 00:19:55;;;;;;;;;42.00;31.00;;;;;13.10;43.35;102502.63;5030742;28;47274;-68
2022/03/27 00:22:20;;;;;;;;;36.00;30.00;;;;;13.08;44.26;102507.09;5030785;28;45507;-68
2022/03/27 00:24:46;;;;;;;;;41.75;29.50;;;;;13.05;43.52;102505.41;5035531;28;45638;-68
2022/03/27 00:27:11;;;;;;;;;40.50;29.00;;;;;13.02;43.66;102504.63;5032002;28;45338;-68
2022/03/27 00:29:36;;;;;;;;;37.33;31.33;;;;;12.99;43.98;102502.03;5030611;28;46819;-67
2022/03/27 00:32:02;;;;;;;;;39.00;34.00;;;;;12.97;44.74;102507.38;5031072;28;45468;-68
2022/03/27 00:34:27;;;;;;;;;42.00;31.75;;;;;12.95;44.19;102498.63;5030462;28;45562;-68
2022/03/27 00:36:53;;;;;;;;;43.00;31.50;;;;;12.92;44.75;102500.47;5033587;28;45435;-67
2022/03/27 00:39:18;;;;;;;;;38.00;30.50;;;;;12.91;44.75;102501.38;5032083;28;46032;-67
2022/03/27 00:41:44;;;;;;;;;39.67;30.67;;;;;12.90;44.48;102504.94;5030795;28;46223;-68
2022/03/27 00:44:09;;;;;;;;;39.25;30.25;;;;;12.86;44.86;102505.91;5030823;28;45391;-68
2022/03/27 00:46:35;;;;;;;;;35.25;31.50;;;;;12.84;44.79;102505.06;5030367;28;45432;-68
2022/03/27 00:49:00;;;;;;;;;38.75;32.25;;;;;12.81;44.85;102500.72;5032379;28;45396;-68
2022/03/27 00:51:25;;;;;;;;;42.00;31.25;;;;;12.80;44.71;102515.69;5033357;28;45547;-68
2022/03/27 00:53:51;;;;;;;;;44.25;31.75;;;;;12.78;44.77;102504.28;5030770;28;45498;-67
2022/03/27 00:56:16;;;;;;;;;40.00;28.25;;;;;12.74;45.35;102502.66;5030189;28;45273;-68
2022/03/27 00:58:41;;;;;;;;;36.75;30.75;;;;;12.72;45.84;102493.03;5030255;28;45398;-69
2022/03/27 01:01:09;;;;;;;;;35.25;32.00;;;;;12.70;45.33;102497.50;5031559;28;45385;-68
2022/03/27 01:03:35;;;;;;;;;44.75;33.50;;;;;12.69;45.10;102498.41;5034018;28;45814;-68
2022/03/27 01:06:01;;;;;;;;;49.25;34.00;;;;;12.68;45.70;102494.00;5030772;28;45461;-68
2022/03/27 01:11:18;;;;;;;;;44.75;33.25;;;;;12.64;46.05;102493.22;5030278;28;45390;-68
2022/03/27 01:13:54;;;;;;;;;45.75;31.75;;;;;12.62;45.79;102496.78;5029585;28;45510;-68
2022/03/27 01:16:40;;;;;;;;;40.50;33.25;;;;;12.60;46.29;102496.84;5030096;28;45477;-67
2022/03/27 01:19:07;;;;;;;;;50.75;37.75;;;;;12.59;46.15;102487.19;5031638;28;46134;-68
2022/03/27 01:21:37;;;;;;;;;38.75;33.00;;;;;12.57;46.53;102488.13;5016013;28;45515;-68
2022/03/27 01:24:03;;;;;;;;;46.00;30.75;;;;;12.55;46.70;102488.16;5030690;28;45540;-68
2022/03/27 01:26:29;;;;;;;;;41.75;33.50;;;;;12.54;47.02;102486.44;5029948;28;45385;-67
2022/03/27 01:28:55;;;;;;;;;41.50;30.50;;;;;12.51;47.03;102482.06;5029572;28;46511;-67
2022/03/27 01:31:22;;;;;;;;;48.00;36.25;;;;;12.50;47.22;102479.47;5029899;28;45571;-68
2022/03/27 01:33:47;;;;;;;;;44.00;33.50;;;;;12.48;46.66;102478.66;5034116;28;45584;-67
2022/03/27 01:36:23;;;;;;;;;39.00;33.00;;;;;12.46;47.26;102469.91;5031049;28;45439;-68
2022/03/27 01:38:53;;;;;;;;;42.25;33.50;;;;;12.43;46.71;102475.28;5030191;28;46084;-67
2022/03/27 01:41:18;;;;;;;;;50.75;35.00;;;;;12.41;47.50;102467.38;5029716;28;45300;-68
2022/03/27 01:43:44;;;;;;;;;37.75;34.00;;;;;12.40;47.57;102464.78;5029674;28;45254;-68
2022/03/27 01:46:09;;;;;;;;;50.25;36.25;;;;;12.40;47.26;102467.41;5030661;28;45393;-68
2022/03/27 01:48:35;;;;;;;;;44.25;34.50;;;;;12.38;47.54;102459.56;5033704;28;45248;-68
2022/03/27 01:51:00;;;;;;;;;47.75;34.75;;;;;12.38;47.60;102456.91;5030181;28;45413;-68
2022/03/27 01:53:26;;;;;;;;;47.25;34.00;;;;;12.34;47.90;102454.38;5029487;28;45502;-67
2022/03/27 01:55:52;;;;;;;;;46.00;34.25;;;;;12.34;48.02;102455.25;5029369;28;45943;-67
2022/03/27 01:58:17;;;;;;;;;32.50;28.00;;;;;12.33;48.19;102450.00;5029077;28;47056;-68
2022/03/27 02:00:43;;;;;;;;;47.75;35.25;;;;;12.32;48.07;102451.78;5034501;28;45476;-68
2022/03/27 02:03:10;;;;;;;;;46.50;35.75;;;;;12.31;48.18;102449.16;5030445;28;45402;-68
2022/03/27 02:05:36;;;;;;;;;44.00;31.50;;;;;12.27;47.34;102436.06;5029379;28;45601;-68
2022/03/27 02:08:01;;;;;;;;;43.25;36.25;;;;;12.26;48.47;102444.00;5029414;28;46259;-67
2022/03/27 02:10:26;;;;;;;;;50.50;36.25;;;;;12.24;48.62;102454.56;5029419;28;45369;-68
2022/03/27 02:12:52;;;;;;;;;44.50;36.50;;;;;12.23;48.73;102446.72;5032640;28;45408;-68
2022/03/27 02:15:17;;;;;;;;;48.50;32.25;;;;;12.20;48.40;102447.63;5031008;28;45465;-67
2022/03/27 02:17:43;;;;;;;;;46.25;33.50;;;;;12.18;48.74;102446.81;5029498;28;46421;-67
2022/03/27 02:20:09;;;;;;;;;43.00;35.75;;;;;12.19;48.85;102443.28;5029198;28;45470;-68
2022/03/27 02:22:35;;;;;;;;;37.25;29.00;;;;;12.17;48.79;102445.09;5029101;28;45332;-67
2022/03/27 02:25:00;;;;;;;;;48.75;35.50;;;;;12.19;49.26;102455.59;5032197;28;45519;-67
2022/03/27 02:27:26;;;;;;;;;49.75;34.75;;;;;12.17;48.80;102449.50;5035372;28;45401;-67
2022/03/27 02:29:51;;;;;;;;;53.33;39.33;;;;;12.15;48.84;102452.13;5032941;28;45484;-67
2022/03/27 02:32:16;;;;;;;;;47.25;36.25;;;;;12.12;48.68;102449.59;5033101;28;45296;-67
2022/03/27 02:34:41;;;;;;;;;52.67;37.00;;;;;12.09;48.68;102444.38;5032150;28;52322;-67
2022/03/27 02:37:07;;;;;;;;;47.50;34.50;;;;;12.06;48.94;102449.72;5033397;28;45832;-67
2022/03/27 02:39:33;;;;;;;;;51.50;35.75;;;;;12.04;49.60;102453.28;5036022;28;45491;-68
2022/03/27 02:41:58;;;;;;;;;51.25;33.00;;;;;12.02;49.72;102456.81;5033148;28;45413;-67
2022/03/27 02:44:24;;;;;;;;;47.75;36.00;;;;;12.00;49.77;102455.09;5032570;28;45365;-67
2022/03/27 02:46:50;;;;;;;;;42.75;31.75;;;;;11.99;49.45;102461.28;5032299;28;46105;-67
2022/03/27 02:49:16;;;;;;;;;50.50;36.25;;;;;11.96;49.93;102456.97;5032252;28;45389;-67
2022/03/27 02:51:44;;;;;;;;;50.50;33.50;;;;;11.96;50.12;102450.81;5036904;28;45330;-67
2022/03/27 02:54:10;;;;;;;;;46.00;34.25;;;;;11.96;50.36;102450.81;5037352;28;45462;-67
2022/03/27 02:56:35;;;;;;;;;54.50;36.00;;;;;11.93;49.92;102453.50;5032377;28;46058;-67
2022/03/27 02:59:01;;;;;;;;;40.75;34.75;;;;;11.92;49.99;102457.06;5032051;28;45301;-67
2022/03/27 03:01:26;;;;;;;;;48.75;37.50;;;;;11.91;49.97;102450.06;5032296;28;45605;-67
2022/03/27 03:03:51;;;;;;;;;39.50;32.75;;;;;11.87;49.99;102449.25;5035850;28;45358;-67
2022/03/27 03:06:20;;;;;;;;;45.50;33.00;;;;;11.86;50.53;102454.56;5033366;28;48902;-67
2022/03/27 03:08:46;;;;;;;;;47.75;34.25;;;;;11.84;50.15;102446.66;5035910;28;45911;-67
2022/03/27 03:11:13;;;;;;;;;43.75;34.50;;;;;11.84;50.34;102446.66;5032029;28;45556;-68
2022/03/27 03:13:39;;;;;;;;;51.00;37.00;;;;;11.82;50.31;102450.25;5031899;28;45605;-68
2022/03/27 03:16:06;;;;;;;;;32.75;26.25;;;;;11.80;50.01;102458.16;5033482;28;46068;-68
2022/03/27 03:18:34;;;;;;;;;38.75;33.00;;;;;11.78;50.47;102454.66;5035005;28;46024;-68
2022/03/27 03:20:59;;;;;;;;;44.00;34.00;;;;;11.77;50.83;102460.84;5032664;28;45568;-68
2022/03/27 03:23:25;;;;;;;;;54.50;37.25;;;;;11.75;50.98;102458.25;5031940;28;45325;-68
2022/03/27 03:25:50;;;;;;;;;43.75;33.00;;;;;11.75;50.79;102455.59;5031586;28;46058;-68
2022/03/27 03:28:15;;;;;;;;;34.00;26.50;;;;;11.74;50.28;102456.50;5031703;28;45337;-68
2022/03/27 03:30:41;;;;;;;;;49.00;37.33;;;;;11.73;51.10;102451.25;5036285;28;45361;-67
2022/03/27 03:33:07;;;;;;;;;39.00;29.75;;;;;11.71;51.11;102456.56;5032151;28;45349;-68
2022/03/27 03:35:32;;;;;;;;;40.00;34.25;;;;;11.70;50.69;102457.47;5031090;28;46370;-68
2022/03/27 03:37:58;;;;;;;;;42.75;28.25;;;;;11.69;51.36;102452.19;5031356;28;45461;-68
2022/03/27 03:40:23;;;;;;;;;43.00;32.25;;;;;11.68;51.36;102455.75;5031903;28;45467;-68
2022/03/27 03:42:48;;;;;;;;;43.50;33.00;;;;;11.67;51.27;102454.00;5035316;28;45384;-68
2022/03/27 03:45:14;;;;;;;;;38.25;31.00;;;;;11.67;51.58;102465.41;5032246;28;54219;-67
2022/03/27 03:47:39;;;;;;;;;41.00;35.00;;;;;11.67;51.63;102451.38;5031722;28;45432;-68
2022/03/27 03:50:05;;;;;;;;;44.50;36.00;;;;;11.67;51.57;102456.66;5031803;28;45275;-67
2022/03/27 03:52:30;;;;;;;;;41.25;32.00;;;;;11.67;51.26;102464.53;5031055;28;45608;-67
2022/03/27 03:54:56;;;;;;;;;33.00;29.25;;;;;11.64;51.76;102460.22;5034041;28;45956;-68
2022/03/27 03:57:21;;;;;;;;;37.25;33.00;;;;;11.62;51.84;102464.63;5033179;28;45675;-68
2022/03/27 03:59:46;;;;;;;;;37.00;32.25;;;;;11.60;52.11;102458.53;5032099;28;45696;-68
2022/03/27 04:02:14;;;;;;;;;42.75;30.00;;;;;11.58;51.70;102465.59;5031370;28;45506;-67
2022/03/27 04:04:39;;;;;;;;;40.50;31.00;;;;;11.57;51.72;102458.59;5030855;28;46961;-67
2022/03/27 04:07:05;;;;;;;;;35.75;29.75;;;;;11.56;52.30;102462.13;5032876;28;45470;-67
2022/03/27 04:09:30;;;;;;;;;38.50;28.25;;;;;11.56;52.28;102458.63;5034316;28;45422;-67
2022/03/27 04:11:56;;;;;;;;;42.75;28.25;;;;;11.54;51.87;102457.78;5031692;28;45398;-68
2022/03/27 04:14:22;;;;;;;;;32.75;28.00;;;;;11.52;51.75;102460.44;5030761;28;46512;-68
2022/03/27 04:16:48;;;;;;;;;31.00;30.25;;;;;11.49;52.40;102458.75;5031232;28;45547;-67
2022/03/27 04:19:14;;;;;;;;;32.00;27.25;;;;;11.48;52.34;102456.13;5031232;28;45459;-67
2022/03/27 04:21:39;;;;;;;;;34.50;29.50;;;;;11.46;52.44;102460.56;5035704;28;45493;-69
2022/03/27 04:24:06;;;;;;;;;34.75;29.50;;;;;11.45;52.50;102459.69;5031563;28;46334;-67
2022/03/27 04:26:32;;;;;;;;;37.00;29.25;;;;;11.42;52.79;102459.75;5030728;28;45975;-67
2022/03/27 04:28:57;;;;;;;;;32.75;27.00;;;;;11.40;52.04;102458.06;5030920;28;45327;-67
2022/03/27 04:31:23;;;;;;;;;40.00;30.00;;;;;11.38;52.53;102463.34;5030660;28;45570;-67
2022/03/27 04:33:48;;;;;;;;;38.50;35.00;;;;;11.36;52.23;102464.28;5034583;28;46095;-67
2022/03/27 04:36:13;;;;;;;;;38.50;27.75;;;;;11.35;52.59;102467.81;5031875;28;45829;-67
2022/03/27 04:38:39;;;;;;;;;32.00;28.67;;;;;11.33;52.44;102466.94;5030523;28;51954;-67
2022/03/27 04:41:04;;;;;;;;;32.00;27.25;;;;;11.30;52.88;102464.38;5030448;28;45491;-67
2022/03/27 04:43:29;;;;;;;;;35.25;26.75;;;;;11.29;52.76;102467.91;5030290;28;46272;-67
2022/03/27 04:45:55;;;;;;;;;34.75;30.75;;;;;11.27;52.92;102472.31;5033555;28;45453;-67
2022/03/27 04:48:20;;;;;;;;;36.00;29.25;;;;;11.24;52.76;102474.13;5030888;28;45444;-67
2022/03/27 04:50:46;;;;;;;;;41.75;29.75;;;;;11.21;52.77;102481.19;5031069;28;45484;-67
2022/03/27 04:53:12;;;;;;;;;31.50;26.75;;;;;11.19;53.21;102480.38;5030138;28;45460;-67
2022/03/27 04:55:37;;;;;;;;;38.67;25.33;;;;;11.18;52.64;102476.00;5029908;28;55748;-67
2022/03/27 04:58:07;;;;;;;;;35.25;24.00;;;;;11.15;52.70;102482.19;5032454;28;45573;-67
2022/03/27 05:00:33;;;;;;;;;41.50;29.75;;;;;11.15;53.04;102483.94;5033914;28;45683;-67
2022/03/27 05:02:58;;;;;;;;;35.00;28.00;;;;;11.13;53.53;102483.97;5030631;28;46549;-67
2022/03/27 05:05:23;;;;;;;;;35.00;23.50;;;;;11.11;52.92;102480.50;5030138;28;45413;-67
2022/03/27 05:07:49;;;;;;;;;36.50;28.75;;;;;11.10;53.73;102476.13;5030228;28;45425;-67
2022/03/27 05:10:14;;;;;;;;;40.50;28.25;;;;;11.07;53.14;102486.72;5030016;28;50813;-68
2022/03/27 05:12:40;;;;;;;;;26.50;26.50;;;;;11.05;53.79;102495.53;5034404;28;45965;-68
2022/03/27 05:15:09;;;;;;;;;36.50;30.00;;;;;11.04;53.42;102494.66;5030665;28;45418;-68
2022/03/27 05:17:46;;;;;;;;;37.00;24.00;;;;;11.01;54.29;102489.44;5030206;28;45546;-68
2022/03/27 05:20:13;;;;;;;;;36.75;26.00;;;;;11.00;53.75;102495.59;5030312;28;45394;-68
2022/03/27 05:22:38;;;;;;;;;42.25;29.00;;;;;10.97;53.88;102487.78;5029795;28;46255;-68
2022/03/27 05:25:05;;;;;;;;;38.67;29.00;;;;;10.98;54.10;102500.03;5030754;28;58858;-68
2022/03/27 05:27:31;;;;;;;;;35.00;29.25;;;;;10.97;53.83;102500.94;5033681;28;45418;-68
2022/03/27 05:29:56;;;;;;;;;32.50;26.50;;;;;10.96;54.69;102497.44;5030583;28;45532;-68
2022/03/27 05:32:22;;;;;;;;;40.50;32.00;;;;;10.95;54.33;102502.69;5029609;28;45994;-68
2022/03/27 05:34:48;;;;;;;;;36.50;29.50;;;;;10.94;54.71;102506.22;5029785;28;45425;-68
2022/03/27 05:37:13;;;;;;;;;34.75;29.50;;;;;10.93;54.53;102504.50;5030337;28;45709;-68
2022/03/27 05:39:39;;;;;;;;;37.25;29.25;;;;;10.91;54.50;102501.91;5034193;28;45353;-68
2022/03/27 05:42:05;;;;;;;;;33.50;30.25;;;;;10.90;54.22;102502.75;5030311;28;47187;-67
2022/03/27 05:44:30;;;;;;;;;30.00;25.75;;;;;10.91;54.60;102503.63;5029606;28;45436;-68
2022/03/27 05:46:56;;;;;;;;;38.50;28.50;;;;;10.90;54.17;102500.13;5029537;28;45250;-68
2022/03/27 05:49:21;;;;;;;;;40.00;29.00;;;;;10.90;54.61;102510.66;5029687;28;45519;-68
2022/03/27 05:51:47;;;;;;;;;32.25;26.75;;;;;10.91;54.66;102494.00;5033257;28;46050;-68
2022/03/27 05:54:12;;;;;;;;;36.50;28.00;;;;;10.91;54.48;102499.25;5030643;28;45322;-68
2022/03/27 05:56:37;;;;;;;;;39.00;30.25;;;;;10.95;54.79;102505.31;5029932;28;45416;-68
2022/03/27 05:59:03;;;;;;;;;39.50;26.75;;;;;10.97;54.79;102508.81;5029753;28;45267;-68
2022/03/27 06:01:28;;;;;;;;;36.25;28.00;;;;;11.00;54.88;102508.75;5033001;28;45480;-68
2022/03/27 06:03:53;;;;;;;;;35.25;27.75;;;;;11.03;54.29;102508.72;5035666;28;45342;-68
2022/03/27 06:06:19;;;;;;;;;33.00;28.00;;;;;11.05;54.87;102514.81;5035332;28;45361;-68
2022/03/27 06:08:44;;;;;;;;;34.25;29.00;;;;;11.09;54.77;102513.00;5033539;28;45354;-68
2022/03/27 06:11:09;;;;;;;;;32.33;27.33;;;;;11.11;54.69;102519.97;5032302;28;59152;-67
2022/03/27 06:13:35;;;;;;;;;38.25;26.75;;;;;11.16;54.56;102526.00;5032815;28;45491;-68
2022/03/27 06:16:00;;;;;;;;;30.33;26.00;;;;;11.20;54.65;102518.94;5034315;28;55506;-68
2022/03/27 06:18:25;;;;;;;;;39.33;28.67;;;;;11.24;54.78;102518.00;5035300;28;54870;-68
2022/03/27 06:20:51;;;;;;;;;38.67;28.00;;;;;11.30;54.20;102524.94;5032522;28;61953;-68
2022/03/27 06:23:16;;;;;;;;;30.50;27.25;;;;;11.33;54.81;102520.47;5032698;28;45389;-68
2022/03/27 06:25:41;;;;;;;;;32.50;25.75;;;;;11.39;54.55;102519.50;5032698;28;45340;-68
2022/03/27 06:28:07;;;;;;;;;41.33;32.67;;;;;11.46;54.19;102510.59;5033108;28;54020;-68
2022/03/27 06:30:32;;;;;;;;;35.50;27.75;;;;;11.52;54.58;102518.38;5036265;28;46368;-67
2022/03/27 06:32:59;;;;;;;;;43.25;27.75;;;;;11.60;54.45;102519.09;5033145;28;45306;-68
2022/03/27 06:35:25;;;;;;;;;37.50;29.00;;;;;11.65;54.33;102519.88;5032715;28;45361;-68
2022/03/27 06:37:52;;;;;;;;;36.00;31.50;;;;;11.73;54.12;102519.72;5032488;28;45648;-68
2022/03/27 06:40:19;;;;;;;;;42.00;29.50;;;;;11.77;53.72;102524.91;5032451;28;46422;-68
2022/03/27 06:42:45;;;;;;;;;35.25;28.50;;;;;11.83;53.91;102531.00;5036623;28;45383;-68
2022/03/27 06:45:12;;;;;;;;;31.75;22.00;;;;;11.91;53.85;102534.38;5033776;28;45541;-68
2022/03/27 06:47:38;;;;;;;;;34.50;21.75;;;;;11.98;54.02;102528.91;5037040;28;47857;-68
2022/03/27 06:50:05;;;;;;;;;36.00;27.50;;;;;12.05;53.35;102536.69;5032667;28;46038;-68
2022/03/27 06:52:32;;;;;;;;;31.75;27.25;;;;;12.13;53.42;102525.13;5032103;28;45923;-68
2022/03/27 06:54:57;;;;;;;;;32.75;27.25;;;;;12.21;53.24;102525.81;5034787;28;45603;-68
2022/03/27 06:57:23;;;;;;;;;32.50;26.75;;;;;12.31;53.59;102523.84;5034790;28;45342;-68
2022/03/27 07:05:17;;;;;;;;;38.50;26.25;;;;;12.54;52.52;102526.84;5032336;28;45506;-68
2022/03/27 07:07:42;;;;;;;;;31.75;25.25;;;;;12.64;52.65;102524.88;5031883;28;45432;-68
2022/03/27 07:10:09;;;;;;;;;39.50;25.75;;;;;12.74;52.87;102528.19;5032745;28;45949;-68
2022/03/27 07:12:35;;;;;;;;;42.25;29.25;;;;;12.90;52.45;102532.19;5035064;28;45957;-68
2022/03/27 07:15:00;;;;;;;;;39.00;29.67;;;;;13.04;52.44;102522.13;5032785;28;48773;-68
2022/03/27 07:17:26;;;;;;;;;33.75;27.25;;;;;13.18;52.25;102526.22;5031741;28;45421;-68
2022/03/27 07:19:52;;;;;;;;;32.50;23.75;;;;;13.28;51.93;102527.75;5032196;28;45395;-68
2022/03/27 07:22:18;;;;;;;;;35.75;27.25;;;;;13.36;51.81;102528.41;5031688;28;45275;-68
2022/03/27 07:24:45;;;;;;;;;29.75;21.00;;;;;13.46;51.31;102526.38;5036544;28;45412;-68
2022/03/27 07:27:11;;;;;;;;;36.75;27.25;;;;;13.56;51.21;102528.75;5033012;28;45462;-68
2022/03/27 07:29:37;;;;;;;;;34.25;28.25;;;;;13.66;51.30;102537.28;5036503;28;46214;-68
2022/03/27 07:32:05;;;;;;;;;33.25;27.75;;;;;13.79;51.09;102537.84;5031808;28;45571;-68
2022/03/27 07:34:32;;;;;;;;;34.50;29.00;;;;;13.91;50.73;102537.50;5031680;28;45557;-68
2022/03/27 07:36:57;;;;;;;;;38.50;30.25;;;;;14.06;50.51;102530.91;5034005;28;45434;-68
2022/03/27 07:39:22;;;;;;;;;36.50;27.75;;;;;14.23;50.20;102531.28;5033933;28;46313;-68
2022/03/27 07:41:48;;;;;;;;;38.75;28.00;;;;;14.41;49.86;102536.91;5031869;28;45362;-68
2022/03/27 07:44:13;;;;;;;;;31.50;26.25;;;;;14.55;49.72;102545.34;5031336;28;45463;-68
2022/03/27 07:46:39;;;;;;;;;28.00;24.75;;;;;14.69;49.40;102539.63;5031712;28;45445;-68
2022/03/27 07:49:04;;;;;;;;;34.25;23.00;;;;;14.80;49.59;102546.31;5032629;28;46901;-68
2022/03/27 07:51:30;;;;;;;;;34.25;28.25;;;;;14.93;48.93;102541.50;5034757;28;45335;-68
2022/03/27 07:53:55;;;;;;;;;32.00;27.75;;;;;15.01;48.60;102535.94;5031949;28;45329;-68
2022/03/27 07:56:20;;;;;;;;;36.00;29.75;;;;;15.07;48.55;102538.38;5031329;28;45294;-68
2022/03/27 07:58:46;;;;;;;;;36.50;27.75;;;;;15.16;48.21;102539.88;5030879;28;46783;-68
2022/03/27 08:01:14;;;;;;;;;38.25;30.50;;;;;15.26;47.98;102549.25;5031640;28;45456;-68
2022/03/27 08:03:40;;;;;;;;;35.00;25.75;;;;;15.36;48.09;102542.72;5020089;28;45768;-68
2022/03/27 08:06:06;;;;;;;;;40.25;27.00;;;;;15.52;47.75;102540.41;5032060;28;45344;-68
2022/03/27 08:08:32;;;;;;;;;31.25;27.75;;;;;15.70;47.46;102536.25;5031302;28;45571;-68
2022/03/27 08:10:57;;;;;;;;;30.50;24.25;;;;;15.85;46.78;102541.88;5030816;28;45286;-68
2022/03/27 08:13:23;;;;;;;;;29.50;26.00;;;;;16.02;46.88;102540.38;5031189;28;45493;-68
2022/03/27 08:15:48;;;;;;;;;36.50;28.25;;;;;16.14;46.29;102540.81;5034707;28;45448;-68
2022/03/27 08:18:13;;;;;;;;;30.50;22.00;;;;;16.30;46.33;102550.84;5032102;28;57393;-68
2022/03/27 08:20:40;;;;;;;;;33.00;27.00;;;;;16.42;45.83;102547.72;5031243;28;46063;-68
2022/03/27 08:23:07;;;;;;;;;35.25;25.75;;;;;16.59;45.72;102547.91;5029732;28;45338;-68
2022/03/27 08:28:19;;;;;;;;;39.50;30.50;;;;;16.94;45.12;102551.00;5030874;28;45476;-68
2022/03/27 08:30:46;;;;;;;;;32.00;26.25;;;;;17.17;45.28;102550.03;5034922;28;45587;-68
2022/03/27 08:33:12;;;;;;;;;34.50;26.50;;;;;17.36;44.72;102545.69;5032102;28;45373;-68
2022/03/27 08:35:41;;;;;;;;;32.50;27.50;;;;;17.65;44.42;102547.09;5034970;28;45401;-68
2022/03/27 08:38:07;;;;;;;;;33.25;26.00;;;;;17.90;44.44;102548.66;5030814;28;47201;-68
2022/03/27 08:40:33;;;;;;;;;38.00;27.75;;;;;18.12;43.93;102552.13;5030390;28;45628;-69
2022/03/27 08:42:58;;;;;;;;;31.00;24.25;;;;;18.32;43.21;102540.50;5032810;28;45407;-68
2022/03/27 08:45:24;;;;;;;;;38.75;28.00;;;;;18.61;43.21;102547.13;5033176;28;45327;-69
2022/03/27 08:47:49;;;;;;;;;30.25;27.25;;;;;18.95;42.96;102549.06;5031251;28;45396;-68
2022/03/27 08:50:26;;;;;;;;;32.75;27.25;;;;;19.61;42.22;102540.41;5030263;28;51871;-69
2022/03/27 08:53:00;;;;;;;;;33.25;26.25;;;;;20.72;41.36;102541.44;5030488;28;45441;-68
2022/03/27 08:55:37;;;;;;;;;32.75;29.00;;;;;22.13;40.35;102533.03;5030346;28;45500;-67
2022/03/27 08:58:03;;;;;;;;;32.00;27.50;;;;;24.48;38.83;102542.97;5013755;28;46603;-67
2022/03/27 09:00:31;;;;;;;;;34.25;30.00;;;;;26.88;36.48;102542.16;5033595;28;46191;-67
2022/03/27 09:02:58;;;;;;;;;37.00;26.75;;;;;29.11;34.28;102536.78;5030964;28;45293;-68
2022/03/27 09:05:25;;;;;;;;;29.00;24.25;;;;;30.99;31.65;102547.41;5030104;28;45432;-67
2022/03/27 09:07:52;;;;;;;;;31.75;26.50;;;;;32.41;31.22;102546.09;5030193;28;46263;-68
2022/03/27 09:10:18;;;;;;;;;29.50;26.25;;;;;33.47;28.48;102546.22;5030091;28;45920;-68
2022/03/27 09:12:45;;;;;;;;;33.50;26.00;;;;;34.45;27.45;102553.22;5035070;28;45511;-68
2022/03/27 09:15:12;;;;;;;;;27.00;23.50;;;;;35.40;26.95;102555.59;5031405;28;45493;-68
2022/03/27 09:18:04;;;;;;;;;25.25;23.25;;;;;36.49;26.61;102553.97;5034423;28;46440;-68
2022/03/27 09:20:33;;;;;;;;;29.75;23.25;;;;;37.02;23.81;102552.66;5030004;28;45547;-68
2022/03/27 09:23:18;;;;;;;;;29.00;23.25;;;;;37.68;23.01;102552.28;5030122;28;45448;-68
2022/03/27 09:25:48;;;;;;;;;27.00;22.00;;;;;38.42;22.45;102561.75;5030338;28;45577;-68
2022/03/27 09:28:34;;;;;;;;;30.50;24.75;;;;;39.00;21.60;102562.94;5030050;28;46094;-68
2022/03/27 09:31:19;;;;;;;;;28.25;23.25;;;;;39.28;21.10;102553.66;5018742;28;45526;-68
2022/03/27 09:33:55;;;;;;;;;28.00;23.75;;;;;39.93;20.25;102562.81;5018320;28;45504;-68
2022/03/27 09:36:42;;;;;;;;;31.25;25.00;;;;;40.49;19.62;102553.91;5031901;28;45310;-68
2022/03/27 09:39:16;;;;;;;;;26.75;23.75;;;;;40.74;18.94;102561.41;5034618;28;46426;-68
2022/03/27 09:41:44;;;;;;;;;26.00;23.75;;;;;41.19;19.42;102562.09;5029872;28;45322;-68
2022/03/27 09:44:29;;;;;;;;;29.75;23.25;;;;;41.32;18.24;102563.91;5029731;28;45519;-68
2022/03/27 09:47:08;;;;;;;;;26.25;22.00;;;;;41.27;17.71;102552.69;5030121;28;45604;-68
2022/03/27 09:49:34;;;;;;;;;29.25;24.50;;;;;40.71;17.69;102556.31;5029985;28;46000;-68
2022/03/27 09:52:04;;;;;;;;;29.50;24.25;;;;;40.05;17.86;102558.34;5031618;28;45435;-68
2022/03/27 09:54:46;;;;;;;;;26.75;23.00;;;;;39.29;18.82;102555.34;5032865;28;45389;-68
2022/03/27 09:57:39;;;;;;;;;29.50;26.75;;;;;38.27;18.78;102556.41;5034432;28;45399;-68
2022/03/27 10:00:14;;;;;;;;;28.50;24.25;;;;;37.35;19.31;102558.38;5031407;28;46177;-68
2022/03/27 10:02:41;;;;;;;;;27.50;24.25;;;;;36.80;19.34;102554.50;5029284;28;45739;-68
2022/03/27 10:05:09;;;;;;;;;26.00;23.75;;;;;36.25;19.92;102547.78;5029847;28;45267;-68
2022/03/27 10:07:36;;;;;;;;;30.00;27.00;;;;;35.74;19.86;102544.13;5029440;28;45546;-68
2022/03/27 10:10:03;;;;;;;;;30.25;23.50;;;;;35.06;19.77;102542.41;5031154;28;46338;-68
2022/03/27 10:12:31;;;;;;;;;23.25;21.75;;;;;34.90;20.80;102538.75;5032581;28;45381;-68
2022/03/27 10:15:03;;;;;;;;;28.75;23.00;;;;;34.83;20.75;102535.06;5030225;28;45330;-69
2022/03/27 10:17:33;;;;;;;;;22.50;21.50;;;;;34.76;20.90;102534.06;5029542;28;45764;-68
2022/03/27 10:20:10;;;;;;;;;26.00;22.25;;;;;34.72;21.15;102541.81;5029014;28;46994;-69
2022/03/27 10:22:39;;;;;;;;;25.00;23.00;;;;;34.69;20.85;102533.09;5028944;28;45511;-68
2022/03/27 10:25:08;;;;;;;;;33.00;26.75;;;;;34.64;21.27;102525.47;5030792;28;45278;-68
2022/03/27 10:27:36;;;;;;;;;34.00;29.50;;;;;34.66;20.95;102515.19;5032923;28;45440;-68
2022/03/27 10:30:02;;;;;;;;;29.00;26.75;;;;;34.57;21.15;102518.19;5029587;28;46433;-68
2022/03/27 10:32:27;;;;;;;;;26.00;23.25;;;;;34.71;21.16;102514.66;5028927;28;45411;-68
2022/03/27 10:35:24;;;;;;;;;26.00;22.25;;;;;34.53;20.48;102520.41;5029173;28;45398;-68
2022/03/27 10:38:07;;;;;;;;;31.00;25.00;;;;;34.17;20.82;102517.38;5029280;28;45505;-68
2022/03/27 10:40:44;;;;;;;;;23.75;23.00;;;;;33.59;20.72;102511.25;5029040;28;46267;-68
2022/03/27 10:43:34;;;;;;;;;25.25;23.25;;;;;33.10;20.98;102510.47;5029668;28;45685;-69
2022/03/27 10:46:19;;;;;;;;;25.75;24.75;;;;;32.41;22.29;102505.28;5018433;28;45465;-69
2022/03/27 10:48:46;;;;;;;;;32.00;26.25;;;;;31.69;22.10;102506.69;5021909;28;45411;-69
2022/03/27 10:51:34;;;;;;;;;34.75;28.25;;;;;30.85;22.33;102499.06;5033400;28;46229;-68
2022/03/27 10:54:02;;;;;;;;;29.00;25.25;;;;;30.52;22.78;102492.47;5032854;28;45283;-69
2022/03/27 10:56:48;;;;;;;;;29.25;26.50;;;;;30.14;23.02;102491.75;5032388;28;45932;-68
2022/03/27 10:59:20;;;;;;;;;29.25;28.00;;;;;29.75;23.30;102480.19;5032298;28;45372;-68
2022/03/27 11:01:51;;;;;;;;;31.25;25.75;;;;;29.46;22.84;102489.25;5032023;28;45914;-68
2022/03/27 11:04:18;;;;;;;;;34.75;26.25;;;;;29.04;23.34;102486.09;5031990;28;45784;-68
2022/03/27 11:06:49;;;;;;;;;34.00;28.00;;;;;28.60;23.65;102482.91;5036638;28;45835;-68
2022/03/27 11:09:36;;;;;;;;;37.50;26.00;;;;;28.18;23.88;102475.00;5033469;28;45342;-68
2022/03/27 11:12:04;;;;;;;;;32.00;25.75;;;;;28.13;24.41;102469.16;5018200;28;47287;-68
2022/03/27 11:14:51;;;;;;;;;32.50;25.50;;;;;28.13;24.70;102479.97;5032250;28;45332;-68
2022/03/27 11:17:32;;;;;;;;;35.00;29.50;;;;;28.09;24.81;102479.41;5031820;28;45348;-68
2022/03/27 11:19:58;;;;;;;;;34.00;28.50;;;;;28.04;25.04;102480.81;5031753;28;45507;-67
2022/03/27 11:22:54;;;;;;;;;36.25;27.75;;;;;27.95;25.01;102481.63;5031693;28;47153;-67